Time;durP1;ratioP1;P1;durP2;ratioP2;P2;SDS_P1;SDS_P2;PMS_P1;PMS_P2;Temp;Humidity;BMP_temperature;BMP_pressure;BME280_temperature;BME280_humidity;BME280_pressure;Samples;Min_cycle;Max_cycle;Signal;HPM_P1;HPM_P2
2023/10/18 00:01:36;;;;;;;5.75;3.33;;;17.70;60.90;;;;;;6193017;28;20038;-64
2023/10/18 00:04:38;;;;;;;5.85;2.88;;;17.70;60.70;;;;;;6192888;28;20042;-63
2023/10/18 00:07:39;;;;;;;6.55;3.42;;;17.70;60.70;;;;;;6191690;28;20358;-64
2023/10/18 00:10:40;;;;;;;11.98;2.78;;;17.70;60.60;;;;;;6195588;28;20041;-64
2023/10/18 00:13:42;;;;;;;6.07;3.15;;;17.80;60.60;;;;;;6217141;28;20037;-65
2023/10/18 00:16:43;;;;;;;9.50;3.50;;;17.80;60.60;;;;;;6217356;28;20038;-64
2023/10/18 00:19:44;;;;;;;7.03;3.08;;;17.70;60.50;;;;;;6216983;28;20068;-65
2023/10/18 00:22:45;;;;;;;4.43;2.83;;;17.80;60.40;;;;;;6217197;28;20030;-65
2023/10/18 00:25:45;;;;;;;5.65;2.78;;;17.80;60.30;;;;;;6217046;28;20648;-63
2023/10/18 00:28:46;;;;;;;6.43;2.85;;;17.80;60.50;;;;;;6216773;28;20482;-64
2023/10/18 00:31:47;;;;;;;5.65;2.95;;;17.80;60.20;;;;;;6216908;28;20057;-63
2023/10/18 00:34:49;;;;;;;7.95;2.72;;;17.80;60.10;;;;;;6216662;28;20166;-65
2023/10/18 00:37:54;;;;;;;7.82;3.05;;;17.90;60.10;;;;;;6215479;28;20038;-64
2023/10/18 00:40:56;;;;;;;7.95;2.80;;;17.80;60.00;;;;;;6216800;28;20043;-65
2023/10/18 00:43:57;;;;;;;6.30;2.88;;;17.80;60.10;;;;;;6215303;28;20041;-66
2023/10/18 00:46:58;;;;;;;5.68;2.90;;;17.80;60.10;;;;;;6215461;28;20062;-64
2023/10/18 00:50:00;;;;;;;9.45;2.88;;;17.80;60.10;;;;;;6214715;28;20033;-65
2023/10/18 00:53:01;;;;;;;7.13;2.55;;;17.80;60.10;;;;;;6214834;28;20042;-64
2023/10/18 00:56:04;;;;;;;3.50;2.20;;;17.90;60.10;;;;;;6215105;28;20054;-65
2023/10/18 00:59:08;;;;;;;6.35;2.83;;;17.80;60.00;;;;;;6214711;28;20146;-64
2023/10/18 01:02:13;;;;;;;6.32;2.50;;;17.80;60.10;;;;;;6214526;28;20046;-65
2023/10/18 01:05:15;;;;;;;12.70;3.67;;;17.80;60.30;;;;;;6216168;28;20091;-64
2023/10/18 01:08:21;;;;;;;5.70;2.60;;;17.80;60.30;;;;;;6215991;28;20037;-65
2023/10/18 01:11:25;;;;;;;4.25;2.80;;;17.70;60.20;;;;;;6215979;28;20034;-66
2023/10/18 01:14:27;;;;;;;7.03;2.58;;;17.80;60.30;;;;;;6215858;28;20386;-64
2023/10/18 01:17:29;;;;;;;3.85;2.45;;;17.70;60.20;;;;;;6214527;28;20045;-65
2023/10/18 01:23:33;;;;;;;7.20;2.58;;;17.80;60.00;;;;;;6191265;28;20057;-63
2023/10/18 01:26:38;;;;;;;3.95;2.33;;;17.80;59.90;;;;;;6173647;28;20056;-63
2023/10/18 01:29:40;;;;;;;6.60;2.60;;;17.80;59.90;;;;;;6189717;28;20038;-65
2023/10/18 01:32:41;;;;;;;4.53;2.03;;;17.80;59.80;;;;;;6191286;28;20380;-65
2023/10/18 01:35:50;;;;;;;3.70;2.25;;;17.80;59.80;;;;;;6201279;28;20096;-64
2023/10/18 01:38:52;;;;;;;3.22;2.33;;;17.80;59.80;;;;;;6213444;28;20030;-64
2023/10/18 01:41:54;;;;;;;3.95;2.30;;;17.80;59.90;;;;;;6215503;28;20030;-64
2023/10/18 01:44:57;;;;;;;8.10;2.30;;;17.80;59.80;;;;;;6214108;28;20123;-65
2023/10/18 01:47:58;;;;;;;4.20;2.30;;;17.80;59.80;;;;;;6216371;28;20034;-65
2023/10/18 01:51:01;;;;;;;4.32;2.15;;;17.80;59.90;;;;;;6215409;28;20085;-65
2023/10/18 01:54:12;;;;;;;7.45;2.28;;;17.70;59.80;;;;;;6213717;28;20113;-65
2023/10/18 01:57:13;;;;;;;5.20;2.40;;;17.80;59.80;;;;;;6215310;28;20042;-65
2023/10/18 02:00:18;;;;;;;5.45;2.65;;;17.80;59.90;;;;;;6206176;28;20073;-65
2023/10/18 02:03:19;;;;;;;5.70;2.33;;;17.70;59.80;;;;;;6189167;28;20329;-65
2023/10/18 02:06:20;;;;;;;3.90;2.25;;;17.80;59.80;;;;;;6190503;28;20042;-66
2023/10/18 02:09:22;;;;;;;7.50;2.50;;;17.80;59.70;;;;;;6190362;28;20053;-64
2023/10/18 02:12:27;;;;;;;4.80;2.60;;;17.80;59.60;;;;;;6207568;28;20073;-66
2023/10/18 02:15:30;;;;;;;5.45;2.33;;;17.80;59.60;;;;;;6212775;28;20030;-66
2023/10/18 02:18:32;;;;;;;4.18;2.10;;;17.80;59.50;;;;;;6214847;28;20036;-66
2023/10/18 02:21:34;;;;;;;4.53;2.60;;;17.80;59.50;;;;;;6213156;28;20029;-64
2023/10/18 02:24:36;;;;;;;6.60;2.08;;;17.90;59.50;;;;;;6214472;28;20034;-67
2023/10/18 02:27:37;;;;;;;3.78;2.15;;;17.80;59.30;;;;;;6214553;28;20025;-66
2023/10/18 02:30:38;;;;;;;4.32;2.13;;;17.90;59.30;;;;;;6214177;28;20037;-65
2023/10/18 02:33:42;;;;;;;6.82;1.98;;;17.90;59.30;;;;;;6213932;28;20041;-64
2023/10/18 02:36:49;;;;;;;6.75;1.85;;;17.90;59.20;;;;;;6214161;28;20048;-64
2023/10/18 02:39:50;;;;;;;6.80;2.15;;;17.90;58.90;;;;;;6212379;28;20052;-64
2023/10/18 02:42:51;;;;;;;4.63;2.00;;;17.90;58.90;;;;;;6212412;28;20030;-65
2023/10/18 02:45:51;;;;;;;3.33;2.22;;;17.90;58.80;;;;;;6212584;28;20370;-65
2023/10/18 02:48:53;;;;;;;7.07;2.28;;;17.90;58.50;;;;;;6212093;28;20026;-66
2023/10/18 02:51:56;;;;;;;6.68;1.88;;;17.90;58.50;;;;;;6212906;28;20403;-65
2023/10/18 02:54:57;;;;;;;3.97;1.92;;;18.00;58.40;;;;;;6214080;28;20052;-65
2023/10/18 02:57:59;;;;;;;3.22;1.88;;;18.00;58.30;;;;;;6212272;28;20333;-66
2023/10/18 03:01:08;;;;;;;6.15;1.70;;;18.00;58.20;;;;;;6200333;28;20026;-66
2023/10/18 03:04:11;;;;;;;4.97;2.28;;;18.00;58.10;;;;;;6189975;28;20490;-65
2023/10/18 03:07:15;;;;;;;8.13;1.92;;;18.00;58.00;;;;;;6188053;28;20081;-64
2023/10/18 03:10:43;;;;;;;2.67;1.83;;;18.00;58.40;;;;;;6189486;28;20069;-66
2023/10/18 03:13:38;;;;;;;3.05;1.92;;;18.00;57.70;;;;;;6189188;28;20145;-64
2023/10/18 03:16:40;;;;;;;7.85;2.20;;;18.00;57.50;;;;;;6189754;28;20022;-64
2023/10/18 03:19:44;;;;;;;5.28;1.80;;;18.00;57.40;;;;;;6188157;28;20045;-65
2023/10/18 03:22:48;;;;;;;2.95;1.67;;;18.00;57.40;;;;;;6188177;28;20104;-65
2023/10/18 03:26:00;;;;;;;7.70;1.85;;;18.00;57.20;;;;;;6189624;28;20038;-64
2023/10/18 03:29:11;;;;;;;5.82;1.48;;;18.00;57.20;;;;;;6210198;28;20108;-65
2023/10/18 03:32:19;;;;;;;3.72;1.88;;;18.00;57.00;;;;;;6218627;28;20033;-64
2023/10/18 03:35:21;;;;;;;3.78;1.80;;;18.00;56.90;;;;;;6216767;28;20038;-67
2023/10/18 03:38:24;;;;;;;5.00;2.10;;;18.00;56.70;;;;;;6215340;28;20041;-66
2023/10/18 03:41:25;;;;;;;3.65;2.05;;;18.00;56.80;;;;;;6195516;28;20038;-64
2023/10/18 03:44:27;;;;;;;4.53;1.98;;;18.00;56.70;;;;;;6195084;28;20145;-66
2023/10/18 03:47:36;;;;;;;5.70;2.17;;;18.00;56.40;;;;;;6208687;28;20085;-64
2023/10/18 03:50:40;;;;;;;2.70;1.80;;;17.90;56.40;;;;;;6228415;28;20044;-64
2023/10/18 03:53:41;;;;;;;4.88;1.65;;;17.90;56.50;;;;;;6216479;28;20713;-64
2023/10/18 03:56:43;;;;;;;6.03;2.10;;;18.00;56.40;;;;;;6216336;28;20033;-66
2023/10/18 03:59:46;;;;;;;2.95;1.70;;;17.90;56.30;;;;;;6215380;28;20112;-64
2023/10/18 04:02:47;;;;;;;3.25;1.70;;;17.90;56.30;;;;;;6217714;28;20022;-64
2023/10/18 04:05:52;;;;;;;2.92;1.70;;;17.90;56.20;;;;;;6215607;28;20611;-65
2023/10/18 04:08:53;;;;;;;3.22;1.73;;;17.90;56.20;;;;;;6217115;28;20026;-64
2023/10/18 04:11:53;;;;;;;5.40;2.55;;;17.90;56.20;;;;;;6203887;28;20423;-65
2023/10/18 04:15:00;;;;;;;4.40;2.03;;;17.90;56.20;;;;;;6192637;28;20039;-66
2023/10/18 04:18:43;;;;;;;5.93;1.95;;;17.90;56.30;;;;;;6191086;28;20399;-65
2023/10/18 04:21:26;;;;;;;3.05;1.90;;;17.90;56.40;;;;;;6189574;28;20041;-63
2023/10/18 04:24:28;;;;;;;4.93;1.88;;;17.80;56.50;;;;;;6192888;28;20590;-65
2023/10/18 04:27:29;;;;;;;4.18;1.70;;;17.80;56.60;;;;;;6192831;28;20045;-64
2023/10/18 04:30:30;;;;;;;3.30;1.90;;;17.80;56.70;;;;;;6192419;28;20026;-65
2023/10/18 04:36:43;;;;;;;8.68;2.50;;;17.70;57.00;;;;;;6209516;28;20081;-66
2023/10/18 04:39:46;;;;;;;12.98;2.45;;;17.70;57.20;;;;;;6216608;28;20119;-65
2023/10/18 04:42:47;;;;;;;3.08;1.55;;;17.60;57.20;;;;;;6215454;28;20030;-68
2023/10/18 04:45:54;;;;;;;3.40;1.83;;;17.60;57.30;;;;;;6216704;28;20115;-66
2023/10/18 04:51:57;;;;;;;4.18;1.90;;;17.70;57.30;;;;;;6216404;28;20034;-64
2023/10/18 04:55:04;;;;;;;5.72;1.88;;;17.70;57.30;;;;;;6216587;28;20049;-65
2023/10/18 04:58:05;;;;;;;4.95;2.30;;;17.60;57.40;;;;;;6214924;28;20074;-65
2023/10/18 05:01:08;;;;;;;6.43;2.08;;;17.60;57.50;;;;;;6216590;28;20049;-67
2023/10/18 05:04:24;;;;;;;5.05;2.13;;;17.60;57.50;;;;;;6216572;28;20117;-66
2023/10/18 05:07:42;;;;;;;4.35;2.13;;;17.60;57.60;;;;;;6215028;28;20658;-65
2023/10/18 05:10:45;;;;;;;10.60;2.10;;;17.60;57.70;;;;;;6198077;28;20500;-65
2023/10/18 05:13:48;;;;;;;5.80;2.13;;;17.60;57.70;;;;;;6216084;28;20038;-66
2023/10/18 05:16:49;;;;;;;4.88;2.45;;;17.70;57.80;;;;;;6216323;28;20026;-66
2023/10/18 05:19:56;;;;;;;4.05;2.10;;;17.70;57.80;;;;;;6212735;28;20049;-66
2023/10/18 05:22:59;;;;;;;4.63;2.08;;;17.70;57.80;;;;;;6192123;28;20061;-64
2023/10/18 05:26:17;;;;;;;5.15;2.30;;;17.70;57.90;;;;;;6191905;28;20494;-64
2023/10/18 05:29:18;;;;;;;4.38;2.42;;;18.40;58.20;;;;;;6191613;28;20031;-65
2023/10/18 05:32:47;;;;;;;6.80;3.03;;;17.70;57.90;;;;;;6192019;28;20022;-65
2023/10/18 05:35:48;;;;;;;5.32;2.30;;;17.70;57.90;;;;;;6195259;28;20029;-65
2023/10/18 05:38:50;;;;;;;7.05;2.80;;;17.70;57.90;;;;;;6189253;28;20031;-64
2023/10/18 05:41:59;;;;;;;7.75;2.90;;;17.70;57.90;;;;;;6189227;28;20556;-65
2023/10/18 05:45:00;;;;;;;8.50;2.95;;;17.80;57.80;;;;;;6190920;28;20407;-66
2023/10/18 05:48:12;;;;;;;4.95;2.53;;;17.80;57.70;;;;;;6189384;28;20040;-64
2023/10/18 05:54:34;;;;;;;8.38;2.88;;;17.80;57.70;;;;;;6213720;28;20775;-65
2023/10/18 05:57:35;;;;;;;5.88;2.75;;;17.80;57.70;;;;;;6215540;28;20132;-65
2023/10/18 06:00:36;;;;;;;8.25;3.25;;;17.80;57.70;;;;;;6215537;28;20100;-64
2023/10/18 06:03:41;;;;;;;5.88;3.05;;;17.80;57.60;;;;;;6215751;28;20044;-64
2023/10/18 06:06:43;;;;;;;5.28;2.47;;;17.90;57.50;;;;;;6213362;28;20443;-65
2023/10/18 06:09:46;;;;;;;17.00;3.00;;;17.90;57.40;;;;;;6214557;28;20474;-65
2023/10/18 06:12:48;;;;;;;6.90;2.60;;;17.90;57.30;;;;;;6213297;28;20100;-65
2023/10/18 06:15:53;;;;;;;6.43;2.88;;;17.90;57.20;;;;;;6214090;28;20431;-68
2023/10/18 06:18:59;;;;;;;5.93;3.45;;;18.00;57.20;;;;;;6190323;28;20098;-66
2023/10/18 06:21:59;;;;;;;4.32;2.45;;;18.00;57.10;;;;;;6190660;28;20760;-65
2023/10/18 06:25:03;;;;;;;7.03;2.85;;;18.10;56.90;;;;;;6190652;28;20045;-66
2023/10/18 06:28:07;;;;;;;3.83;2.40;;;18.10;56.80;;;;;;6197747;28;20026;-64
2023/10/18 06:31:08;;;;;;;6.38;2.58;;;18.10;56.70;;;;;;6214299;28;20030;-67
2023/10/18 06:34:17;;;;;;;7.57;3.20;;;18.20;56.50;;;;;;6214741;28;20077;-65
2023/10/18 06:37:31;;;;;;;5.13;2.33;;;18.20;56.30;;;;;;6214493;28;20102;-65
2023/10/18 06:43:39;;;;;;;5.53;2.65;;;18.20;56.10;;;;;;6214563;28;20141;-65
2023/10/18 06:46:44;;;;;;;7.15;2.97;;;18.20;56.20;;;;;;6214194;28;20140;-67
2023/10/18 06:49:47;;;;;;;12.93;3.20;;;18.30;56.20;;;;;;6212765;28;20045;-66
2023/10/18 06:52:54;;;;;;;7.63;3.30;;;18.20;56.00;;;;;;6214281;28;20034;-66
2023/10/18 06:55:56;;;;;;;4.18;2.55;;;18.30;56.60;;;;;;6214410;28;20041;-67
2023/10/18 06:59:07;;;;;;;5.78;2.95;;;18.30;56.00;;;;;;6214213;28;20034;-66
2023/10/18 07:02:11;;;;;;;4.97;2.30;;;18.40;56.00;;;;;;6218779;28;20037;-66
2023/10/18 07:05:12;;;;;;;14.25;2.88;;;18.40;55.80;;;;;;6219126;28;20206;-66
2023/10/18 07:08:19;;;;;;;8.80;2.58;;;18.50;55.60;;;;;;6218812;28;20056;-65
2023/10/18 07:11:21;;;;;;;6.20;2.67;;;18.60;55.50;;;;;;6218555;28;20033;-64
2023/10/18 07:14:24;;;;;;;9.32;2.85;;;18.70;55.00;;;;;;6197455;28;20057;-67
2023/10/18 07:17:25;;;;;;;6.13;2.40;;;18.70;55.00;;;;;;6193492;28;20030;-65
2023/10/18 07:20:32;;;;;;;7.63;2.55;;;18.80;54.90;;;;;;6194045;28;20128;-64
2023/10/18 07:23:37;;;;;;;2.67;2.10;;;18.90;54.50;;;;;;6193084;28;20046;-65
2023/10/18 07:26:39;;;;;;;8.20;2.63;;;18.90;54.10;;;;;;6194155;28;20038;-64
2023/10/18 07:29:46;;;;;;;4.35;2.10;;;18.90;54.00;;;;;;6194375;28;20167;-67
2023/10/18 07:32:57;;;;;;;5.78;2.53;;;18.90;53.90;;;;;;6193093;28;20221;-65
2023/10/18 07:36:00;;;;;;;6.68;2.28;;;18.90;53.70;;;;;;6194411;28;20038;-66
2023/10/18 07:39:04;;;;;;;8.82;2.55;;;18.90;53.80;;;;;;6193096;28;20148;-64
2023/10/18 07:42:06;;;;;;;5.13;2.28;;;18.90;53.90;;;;;;6193774;28;20061;-65
2023/10/18 07:45:08;;;;;;;4.75;2.50;;;19.00;53.90;;;;;;6193488;28;20042;-65
2023/10/18 07:48:11;;;;;;;4.43;2.08;;;18.90;53.90;;;;;;6192196;28;20090;-65
2023/10/18 07:51:24;;;;;;;4.15;2.15;;;19.00;54.00;;;;;;6217198;28;20045;-66
2023/10/18 07:54:26;;;;;;;7.47;2.15;;;19.00;53.90;;;;;;6217727;28;20555;-66
2023/10/18 07:57:33;;;;;;;3.72;1.73;;;19.10;53.90;;;;;;6217825;28;20072;-64
2023/10/18 08:00:35;;;;;;;12.95;2.22;;;19.20;53.70;;;;;;6207579;28;20154;-65
2023/10/18 08:03:38;;;;;;;10.65;2.15;;;19.20;53.40;;;;;;6193144;28;20046;-66
2023/10/18 08:06:39;;;;;;;4.90;2.55;;;19.40;53.30;;;;;;6192984;28;20030;-64
2023/10/18 08:09:41;;;;;;;5.72;2.63;;;19.60;53.10;;;;;;6192837;28;20085;-64
2023/10/18 08:12:42;;;;;;;8.45;2.50;;;19.70;52.80;;;;;;6211540;28;20042;-64
2023/10/18 08:15:50;;;;;;;3.92;2.13;;;19.80;52.60;;;;;;6217441;28;20041;-66
2023/10/18 08:18:57;;;;;;;6.90;2.47;;;19.90;52.40;;;;;;6217287;28;20080;-66
2023/10/18 08:25:06;;;;;;;8.13;3.22;;;20.00;51.90;;;;;;6216730;28;20064;-66
2023/10/18 08:28:12;;;;;;;17.27;2.65;;;20.10;51.80;;;;;;6216826;28;20112;-64
2023/10/18 08:31:26;;;;;;;8.35;2.47;;;20.20;51.70;;;;;;6215229;28;20030;-66
2023/10/18 08:34:27;;;;;;;8.23;2.70;;;20.30;51.60;;;;;;6215544;28;20077;-66
2023/10/18 08:37:28;;;;;;;4.13;2.30;;;20.30;51.30;;;;;;6215188;28;20120;-66
2023/10/18 08:43:38;;;;;;;10.32;3.42;;;20.40;51.20;;;;;;6216944;28;20113;-65
2023/10/18 08:49:55;;;;;;;6.25;2.28;;;20.40;51.30;;;;;;6216416;28;20030;-67
2023/10/18 08:52:56;;;;;;;3.75;1.83;;;20.50;51.30;;;;;;6216588;28;20510;-66
2023/10/18 08:55:58;;;;;;;12.50;3.10;;;20.60;51.20;;;;;;6216105;28;20045;-65
2023/10/18 08:59:10;;;;;;;5.22;2.53;;;20.70;51.20;;;;;;6216414;28;20478;-67
2023/10/18 09:02:18;;;;;;;6.07;2.58;;;20.80;51.10;;;;;;6193195;28;20076;-67
2023/10/18 09:05:24;;;;;;;6.90;3.63;;;20.90;50.70;;;;;;6191947;28;20022;-66
2023/10/18 09:08:26;;;;;;;9.73;2.85;;;21.00;50.50;;;;;;6191856;28;20042;-67
2023/10/18 09:11:31;;;;;;;14.18;4.40;;;20.90;50.30;;;;;;6183153;28;20030;-64
2023/10/18 09:14:33;;;;;;;15.63;5.30;;;20.90;50.40;;;;;;6214199;28;20044;-66
2023/10/18 09:17:36;;;;;;;9.07;2.97;;;20.90;50.40;;;;;;6200505;28;20107;-65
2023/10/18 09:20:37;;;;;;;8.50;2.65;;;20.80;50.50;;;;;;6193529;28;20586;-64
2023/10/18 09:23:42;;;;;;;8.35;2.35;;;20.80;50.40;;;;;;6191764;28;20033;-66
2023/10/18 09:26:44;;;;;;;10.02;3.35;;;20.80;50.30;;;;;;6189861;28;20034;-65
2023/10/18 09:29:46;;;;;;;14.52;5.18;;;20.80;50.60;;;;;;6191025;28;20038;-65
2023/10/18 09:32:47;;;;;;;9.23;3.53;;;20.80;50.60;;;;;;6189870;28;20793;-66
2023/10/18 09:35:49;;;;;;;15.52;3.55;;;20.90;50.70;;;;;;6191114;28;20034;-65
2023/10/18 09:38:54;;;;;;;7.88;2.55;;;20.80;50.50;;;;;;6189392;28;20141;-65
2023/10/18 09:41:59;;;;;;;6.80;2.88;;;21.10;50.30;;;;;;6173488;28;20030;-66
2023/10/18 09:45:00;;;;;;;9.57;3.00;;;21.20;50.10;;;;;;6190960;28;20487;-67
2023/10/18 09:48:01;;;;;;;7.13;3.78;;;21.40;50.00;;;;;;6190803;28;20038;-65
2023/10/18 09:51:24;;;;;;;13.10;2.38;;;21.40;49.70;;;;;;6214568;28;20041;-64
2023/10/18 09:54:25;;;;;;;7.00;2.40;;;21.50;49.70;;;;;;6214679;28;20140;-66
2023/10/18 09:57:35;;;;;;;21.65;2.50;;;21.70;49.70;;;;;;6215152;28;20113;-66
2023/10/18 10:00:50;;;;;;;11.95;2.97;;;21.90;49.40;;;;;;6213724;28;20103;-66
2023/10/18 10:03:52;;;;;;;16.73;5.95;;;22.20;49.10;;;;;;6190600;28;20034;-67
2023/10/18 10:06:55;;;;;;;5.95;2.50;;;22.50;48.80;;;;;;6190834;28;20420;-65
2023/10/18 10:10:08;;;;;;;17.38;4.10;;;22.90;49.10;;;;;;6189387;28;20086;-67
2023/10/18 10:13:28;;;;;;;12.95;4.53;;;23.30;47.80;;;;;;6203088;28;20027;-65
2023/10/18 10:16:31;;;;;;;9.82;3.00;;;23.80;47.30;;;;;;6190399;28;20386;-67
2023/10/18 10:19:40;;;;;;;10.63;2.72;;;24.30;46.80;;;;;;6188260;28;20105;-66
2023/10/18 10:22:44;;;;;;;22.75;6.05;;;24.90;46.40;;;;;;6172898;28;20056;-65
2023/10/18 10:26:13;;;;;;;9.38;3.00;;;25.30;45.70;;;;;;6188937;28;20030;-66
2023/10/18 10:32:31;;;;;;;4.65;2.35;;;26.20;44.30;;;;;;6190241;28;20110;-65
2023/10/18 10:35:32;;;;;;;7.00;2.13;;;26.60;43.60;;;;;;6190967;28;20046;-67
2023/10/18 10:38:33;;;;;;;6.88;2.58;;;26.90;42.60;;;;;;6195505;28;20042;-65
2023/10/18 10:41:34;;;;;;;9.50;1.90;;;27.10;41.70;;;;;;6196168;28;20478;-65
2023/10/18 10:45:06;;;;;;;8.25;1.70;;;27.30;41.30;;;;;;6195321;28;20478;-67
2023/10/18 10:51:26;;;;;;;11.60;2.47;;;27.60;40.30;;;;;;6219291;28;20482;-67
2023/10/18 10:54:29;;;;;;;9.38;2.42;;;27.60;40.00;;;;;;6201491;28;20040;-65
2023/10/18 10:57:43;;;;;;;8.98;3.60;;;27.60;40.00;;;;;;6215918;28;20398;-67
2023/10/18 11:01:03;;;;;;;9.10;3.45;;;27.60;39.70;;;;;;6202946;28;20132;-65
2023/10/18 11:04:10;;;;;;;14.57;2.40;;;27.60;40.10;;;;;;6201345;28;20426;-64
2023/10/18 11:07:13;;;;;;;14.68;2.63;;;27.90;39.90;;;;;;6197871;28;20041;-66
2023/10/18 11:10:17;;;;;;;5.50;1.83;;;28.20;39.30;;;;;;6195952;28;20038;-66
2023/10/18 11:13:22;;;;;;;3.83;2.08;;;28.50;39.00;;;;;;6205645;28;20037;-66
2023/10/18 11:16:24;;;;;;;8.70;2.38;;;28.60;38.70;;;;;;6215547;28;20545;-66
2023/10/18 11:19:30;;;;;;;8.75;1.40;;;28.70;38.50;;;;;;6195226;28;20793;-66
2023/10/18 11:22:31;;;;;;;6.82;1.92;;;28.80;38.50;;;;;;6201555;28;20438;-68
2023/10/18 11:25:37;;;;;;;7.07;1.70;;;28.90;38.30;;;;;;6205983;28;20034;-65
2023/10/18 11:28:37;;;;;;;5.28;1.67;;;28.90;38.30;;;;;;6206342;28;20489;-64
2023/10/18 11:31:41;;;;;;;7.78;1.65;;;28.90;38.00;;;;;;6206066;28;20042;-66
2023/10/18 11:34:45;;;;;;;10.98;1.88;;;29.00;37.90;;;;;;6209252;28;20038;-65
2023/10/18 11:37:47;;;;;;;9.95;2.05;;;29.00;37.90;;;;;;6217967;28;20033;-66
2023/10/18 11:40:51;;;;;;;14.48;2.30;;;29.00;37.60;;;;;;6205923;28;20029;-66
2023/10/18 11:43:52;;;;;;;4.75;1.42;;;29.00;37.60;;;;;;6204620;28;20038;-66
2023/10/18 11:47:00;;;;;;;3.25;1.50;;;29.00;37.50;;;;;;6207153;28;20044;-66
2023/10/18 11:50:05;;;;;;;7.57;1.60;;;29.10;37.40;;;;;;6201819;28;20035;-66
2023/10/18 11:53:14;;;;;;;10.63;1.75;;;29.00;37.20;;;;;;6200559;28;20360;-66
2023/10/18 11:56:19;;;;;;;7.18;1.90;;;29.00;37.00;;;;;;6208525;28;20017;-66
2023/10/18 11:59:22;;;;;;;16.58;2.25;;;29.00;37.20;;;;;;6202357;28;20449;-67
2023/10/18 12:02:30;;;;;;;4.85;1.83;;;29.00;37.20;;;;;;6207765;28;20111;-65
2023/10/18 12:05:32;;;;;;;10.70;2.00;;;29.00;37.40;;;;;;6204698;28;20023;-65
2023/10/18 12:12:05;;;;;;;13.13;2.03;;;28.90;37.00;;;;;;6206949;28;20033;-65
2023/10/18 12:15:06;;;;;;;18.73;2.08;;;28.90;37.00;;;;;;6203813;28;20116;-66
2023/10/18 12:18:09;;;;;;;9.77;1.73;;;28.80;36.80;;;;;;6203407;28;20031;-65
2023/10/18 12:21:10;;;;;;;9.38;2.05;;;28.80;36.70;;;;;;6204095;28;20037;-66
2023/10/18 12:24:11;;;;;;;6.53;1.65;;;28.80;36.00;;;;;;6201292;28;20041;-66
2023/10/18 12:27:18;;;;;;;10.57;2.08;;;28.70;35.90;;;;;;6205382;28;20158;-66
2023/10/18 12:30:28;;;;;;;7.28;1.95;;;28.70;36.20;;;;;;6203782;28;20090;-65
2023/10/18 12:33:28;;;;;;;6.30;1.55;;;28.70;36.10;;;;;;6201930;28;20102;-67
2023/10/18 12:36:33;;;;;;;12.75;2.20;;;28.70;36.00;;;;;;6205403;28;20084;-67
2023/10/18 12:39:35;;;;;;;8.07;1.73;;;28.70;36.20;;;;;;6202408;28;20541;-66
2023/10/18 12:42:35;;;;;;;16.45;2.50;;;28.70;36.20;;;;;;6199970;28;20173;-65
2023/10/18 12:45:42;;;;;;;6.45;1.80;;;28.90;36.20;;;;;;6201629;28;20433;-65
2023/10/18 12:48:43;;;;;;;11.68;2.00;;;29.00;36.10;;;;;;6200776;28;20346;-65
2023/10/18 12:51:57;;;;;;;13.75;2.15;;;29.20;35.70;;;;;;6201483;28;20038;-66
2023/10/18 12:55:03;;;;;;;6.22;1.90;;;29.40;35.60;;;;;;6197005;28;20398;-64
2023/10/18 12:58:08;;;;;;;14.33;2.23;;;29.60;35.40;;;;;;6197972;28;20034;-65
2023/10/18 13:01:09;;;;;;;10.50;2.13;;;29.70;35.20;;;;;;6205473;28;20273;-66
2023/10/18 13:04:19;;;;;;;13.00;1.95;;;29.70;35.10;;;;;;6198616;28;20600;-67
2023/10/18 13:07:20;;;;;;;6.80;1.60;;;29.70;35.20;;;;;;6200652;28;20473;-65
2023/10/18 13:10:30;;;;;;;14.77;1.80;;;29.70;34.80;;;;;;6199021;28;20030;-64
2023/10/18 13:13:31;;;;;;;6.25;2.47;;;29.60;34.90;;;;;;6203942;28;20034;-65
2023/10/18 13:16:33;;;;;;;9.43;1.67;;;29.50;35.10;;;;;;6195299;28;20062;-65
2023/10/18 13:19:34;;;;;;;7.82;1.50;;;29.50;35.10;;;;;;6209105;28;20033;-67
2023/10/18 13:22:36;;;;;;;7.38;2.00;;;29.60;35.10;;;;;;6203799;28;20153;-65
2023/10/18 13:25:37;;;;;;;8.60;1.48;;;29.40;35.00;;;;;;6203195;28;20740;-66
2023/10/18 13:31:49;;;;;;;12.35;1.80;;;29.40;35.20;;;;;;6206585;28;20073;-66
2023/10/18 13:34:50;;;;;;;6.75;1.63;;;29.50;35.10;;;;;;6197289;28;20026;-65
2023/10/18 13:37:50;;;;;;;9.07;1.95;;;29.50;35.10;;;;;;6209568;28;20061;-66
2023/10/18 13:40:51;;;;;;;12.43;1.70;;;29.60;35.10;;;;;;6201054;28;20213;-68
2023/10/18 13:43:57;;;;;;;9.68;1.63;;;29.60;35.00;;;;;;6201990;28;20045;-65
2023/10/18 13:47:00;;;;;;;7.70;1.58;;;29.60;34.90;;;;;;6198933;28;20117;-64
2023/10/18 13:50:02;;;;;;;12.02;2.42;;;29.70;34.80;;;;;;6201570;28;20074;-65
2023/10/18 13:53:03;;;;;;;6.57;1.70;;;29.70;34.80;;;;;;6204675;28;20033;-66
2023/10/18 13:56:04;;;;;;;7.57;1.88;;;29.70;34.50;;;;;;6198686;28;20042;-65
2023/10/18 13:59:06;;;;;;;9.45;1.67;;;29.70;34.60;;;;;;6201152;28;20137;-65
2023/10/18 14:02:07;;;;;;;6.82;2.08;;;29.80;34.40;;;;;;6200210;28;20104;-66
2023/10/18 14:05:08;;;;;;;9.90;2.92;;;29.80;34.30;;;;;;6195793;28;20076;-65
2023/10/18 14:08:12;;;;;;;7.57;2.10;;;29.80;34.20;;;;;;6208171;28;20105;-66
2023/10/18 14:11:13;;;;;;;5.45;1.75;;;29.80;34.10;;;;;;6203163;28;20029;-67
2023/10/18 14:14:14;;;;;;;9.63;2.53;;;29.80;33.60;;;;;;6189621;28;20042;-65
2023/10/18 14:17:16;;;;;;;9.68;2.22;;;29.80;33.50;;;;;;6195922;28;20066;-65
2023/10/18 14:20:17;;;;;;;14.23;1.90;;;29.80;33.50;;;;;;6204747;28;20037;-66
2023/10/18 14:23:27;;;;;;;13.65;2.40;;;29.70;33.30;;;;;;6206591;28;20034;-65
2023/10/18 14:26:28;;;;;;;5.75;1.60;;;29.70;32.80;;;;;;6201920;28;20048;-66
2023/10/18 14:29:29;;;;;;;11.10;1.98;;;29.70;32.70;;;;;;6195652;28;20105;-66
2023/10/18 14:32:30;;;;;;;7.10;1.70;;;29.60;32.50;;;;;;6203958;28;20118;-65
2023/10/18 14:35:31;;;;;;;7.55;1.70;;;29.60;32.50;;;;;;6208121;28;20113;-66
2023/10/18 14:38:34;;;;;;;4.03;1.55;;;29.60;32.30;;;;;;6193161;28;20044;-66
2023/10/18 14:41:35;;;;;;;9.00;1.85;;;29.70;31.80;;;;;;6198476;28;20034;-65
2023/10/18 14:44:36;;;;;;;3.65;1.50;;;29.70;32.10;;;;;;6202168;28;20034;-68
2023/10/18 14:47:38;;;;;;;5.28;1.65;;;29.60;31.40;;;;;;6193308;28;20109;-65
2023/10/18 14:50:40;;;;;;;7.45;1.38;;;29.60;31.50;;;;;;6197626;28;20042;-66
2023/10/18 14:53:41;;;;;;;6.13;1.10;;;29.60;31.30;;;;;;6203950;28;20116;-67
2023/10/18 14:56:42;;;;;;;13.85;2.05;;;29.60;31.40;;;;;;6202558;28;20038;-65
2023/10/18 14:59:43;;;;;;;9.07;1.90;;;29.60;31.50;;;;;;6204078;28;20383;-67
2023/10/18 15:02:52;;;;;;;3.53;1.40;;;29.60;31.50;;;;;;6203616;28;20026;-66
2023/10/18 15:05:54;;;;;;;6.00;1.55;;;29.60;31.40;;;;;;6208129;28;20120;-65
2023/10/18 15:08:57;;;;;;;13.25;1.75;;;29.50;31.00;;;;;;6199148;28;20037;-66
2023/10/18 15:11:58;;;;;;;5.88;1.60;;;29.60;31.10;;;;;;6203442;28;20086;-65
2023/10/18 15:14:59;;;;;;;7.75;1.67;;;29.60;31.10;;;;;;6198844;28;20173;-65
2023/10/18 15:18:00;;;;;;;9.77;1.70;;;29.50;31.30;;;;;;6199787;28;20368;-66
2023/10/18 15:21:03;;;;;;;7.38;2.05;;;29.40;30.90;;;;;;6199382;28;20026;-65
2023/10/18 15:24:04;;;;;;;7.10;1.30;;;29.30;31.20;;;;;;6201536;28;20038;-67
2023/10/18 15:27:07;;;;;;;2.10;1.10;;;29.20;31.40;;;;;;6202196;28;20036;-65
2023/10/18 15:30:09;;;;;;;7.82;1.70;;;29.10;31.20;;;;;;6204032;28;20136;-67
2023/10/18 15:33:11;;;;;;;3.63;1.40;;;29.00;31.40;;;;;;6202778;28;20471;-66
2023/10/18 15:36:17;;;;;;;9.52;2.00;;;29.00;31.30;;;;;;6213458;28;20429;-66
2023/10/18 15:39:18;;;;;;;6.20;1.30;;;28.90;31.40;;;;;;6213283;28;20338;-65
2023/10/18 15:42:23;;;;;;;5.88;1.17;;;28.80;31.50;;;;;;6205190;28;20052;-65
2023/10/18 15:45:24;;;;;;;5.03;1.35;;;28.80;31.60;;;;;;6198424;28;20034;-64
2023/10/18 15:48:26;;;;;;;7.78;1.55;;;28.70;31.60;;;;;;6209436;28;20034;-66
2023/10/18 15:51:28;;;;;;;11.10;2.05;;;28.60;31.80;;;;;;6209803;28;20359;-66
2023/10/18 15:54:29;;;;;;;8.52;1.35;;;28.60;31.90;;;;;;6206137;28;20038;-66
2023/10/18 15:57:30;;;;;;;9.07;1.67;;;28.50;32.00;;;;;;6206580;28;20070;-65
2023/10/18 16:00:31;;;;;;;4.22;1.50;;;28.40;32.20;;;;;;6203533;28;20022;-66
2023/10/18 16:03:32;;;;;;;13.32;1.73;;;28.40;32.40;;;;;;6206659;28;20071;-66
2023/10/18 16:06:33;;;;;;;12.30;2.17;;;28.30;32.40;;;;;;6196641;28;20037;-66
2023/10/18 16:09:34;;;;;;;6.18;1.73;;;28.30;32.60;;;;;;6198873;28;20022;-67
2023/10/18 16:12:35;;;;;;;12.18;2.00;;;28.20;32.70;;;;;;6209156;28;20058;-66
2023/10/18 16:15:37;;;;;;;2.50;1.20;;;28.20;33.00;;;;;;6209868;28;20320;-65
2023/10/18 16:18:40;;;;;;;6.60;1.52;;;28.10;33.30;;;;;;6216855;28;20032;-66
2023/10/18 16:21:41;;;;;;;6.10;1.38;;;28.10;33.70;;;;;;6206134;28;20058;-67
2023/10/18 16:24:47;;;;;;;3.97;1.45;;;28.00;33.90;;;;;;6198912;28;20520;-66
2023/10/18 16:27:48;;;;;;;5.93;1.42;;;28.00;34.10;;;;;;6197656;28;20145;-68
2023/10/18 16:30:52;;;;;;;9.07;1.73;;;27.90;34.20;;;;;;6201482;28;20036;-67
2023/10/18 16:33:53;;;;;;;3.00;1.10;;;27.90;34.50;;;;;;6201353;28;20023;-65